createdAt,value
2022-09-23T00:00:26.486Z,8.47
2022-09-23T00:01:28.735Z,8.48
2022-09-23T00:02:31.683Z,8.47
2022-09-23T00:03:35.071Z,8.43
2022-09-23T00:04:37.237Z,8.47
2022-09-23T00:05:39.951Z,8.45
2022-09-23T00:06:44.029Z,8.43
2022-09-23T00:07:46.487Z,8.48
2022-09-23T00:14:19.956Z,8.49
2022-09-23T00:15:22.492Z,8.52
2022-09-23T00:16:35.553Z,8.41
2022-09-23T00:17:38.214Z,8.31
2022-09-23T00:18:43.847Z,8.30
2022-09-23T00:19:46.265Z,8.27
2022-09-23T00:20:52.843Z,8.27
2022-09-23T00:21:56.739Z,8.26
2022-09-23T00:22:59.159Z,8.34
2022-09-23T00:24:02.498Z,8.32
2022-09-23T00:25:09.321Z,8.26
2022-09-23T00:26:14.199Z,8.18
2022-09-23T00:27:16.605Z,8.17
2022-09-23T00:28:19.002Z,8.21
2022-09-23T00:29:21.339Z,8.25
2022-09-23T00:30:25.698Z,8.31
2022-09-23T00:31:31.700Z,8.31
2022-09-23T00:32:34.661Z,8.32
2022-09-23T00:33:36.905Z,8.37
2022-09-23T00:34:41.539Z,8.39
2022-09-23T00:35:44.838Z,8.44
2022-09-23T00:36:48.845Z,8.40
2022-09-23T00:37:53.766Z,8.50
2022-09-23T00:39:00.149Z,8.60
2022-09-23T00:40:03.236Z,8.61
2022-09-23T00:41:06.370Z,8.60
2022-09-23T00:42:16.310Z,8.62
2022-09-23T00:43:18.689Z,8.68
2022-09-23T00:44:55.167Z,8.52
2022-09-23T00:45:57.396Z,8.34
2022-09-23T00:46:59.663Z,8.15
2022-09-23T00:48:03.692Z,8.07
2022-09-23T00:49:12.467Z,7.84
2022-09-23T00:50:22.098Z,7.76
2022-09-23T00:51:37.102Z,7.85
2022-09-23T00:52:39.663Z,7.93
2022-09-23T00:53:42.468Z,7.95
2022-09-23T00:54:47.142Z,7.90
2022-09-23T00:55:54.613Z,7.93
2022-09-23T00:56:59.773Z,8.01
2022-09-23T00:58:05.912Z,8.02
2022-09-23T00:59:13.801Z,8.04
2022-09-23T01:00:18.944Z,8.03
2022-09-23T01:01:21.494Z,8.03
2022-09-23T01:02:27.101Z,8.09
2022-09-23T01:03:30.197Z,8.10
2022-09-23T01:04:36.402Z,8.09
2022-09-23T01:05:39.934Z,8.15
2022-09-23T01:06:42.253Z,8.16
2022-09-23T01:07:48.224Z,8.23
2022-09-23T01:08:50.918Z,8.25
2022-09-23T01:09:53.500Z,8.21
2022-09-23T01:11:17.536Z,8.15
2022-09-23T01:12:23.067Z,8.08
2022-09-23T01:13:40.692Z,8.09
2022-09-23T01:14:57.020Z,8.04
2022-09-23T01:16:20.653Z,8.02
2022-09-23T01:17:53.783Z,8.14
2022-09-23T01:19:27.669Z,8.13
2022-09-23T01:20:54.216Z,8.06
2022-09-23T01:22:26.997Z,7.98
2022-09-23T01:24:18.684Z,8.00
2022-09-23T01:25:55.383Z,7.96
2022-09-23T01:27:00.500Z,8.03
2022-09-23T01:28:34.823Z,8.04
2022-09-23T01:30:04.744Z,7.96
2022-09-23T01:31:25.521Z,8.00
2022-09-23T01:32:49.135Z,7.97
2022-09-23T01:34:01.580Z,7.95
2022-09-23T01:35:48.173Z,8.00
2022-09-23T01:37:11.567Z,7.99
2022-09-23T01:38:27.257Z,7.97
2022-09-23T01:39:43.784Z,7.94
2022-09-23T01:41:00.774Z,8.04
2022-09-23T01:42:24.318Z,8.04
2022-09-23T01:43:56.849Z,8.01
2022-09-23T01:45:10.905Z,7.92
2022-09-23T01:46:40.856Z,7.82
2022-09-23T01:48:16.443Z,7.77
2022-09-23T01:49:26.518Z,7.75
2022-09-23T01:50:54.756Z,7.75
2022-09-23T01:52:16.936Z,7.69
2022-09-23T01:53:28.862Z,7.65
2022-09-23T01:54:40.069Z,7.57
2022-09-23T01:55:50.712Z,7.60
2022-09-23T01:57:23.610Z,7.67
2022-09-23T01:58:42.122Z,7.69
2022-09-23T01:59:52.015Z,7.64
2022-09-23T02:01:01.034Z,7.64
2022-09-23T02:02:06.699Z,7.63
2022-09-23T02:03:18.075Z,7.57
2022-09-23T02:04:39.573Z,7.53
2022-09-23T02:05:52.825Z,7.49
2022-09-23T02:07:00.046Z,7.45
2022-09-23T02:08:10.549Z,7.40
2022-09-23T02:09:19.086Z,7.40
2022-09-23T02:10:29.163Z,7.36
2022-09-23T02:11:36.398Z,7.37
2022-09-23T02:12:42.068Z,7.34
2022-09-23T02:13:54.042Z,7.37
2022-09-23T02:15:11.912Z,7.38
2022-09-23T02:16:24.704Z,7.30
2022-09-23T02:17:49.510Z,7.31
2022-09-23T02:19:04.442Z,7.29
2022-09-23T02:20:07.725Z,7.29
2022-09-23T02:21:10.079Z,7.24
2022-09-23T02:22:18.720Z,7.28
2022-09-23T02:23:36.547Z,7.26
2022-09-23T02:24:39.876Z,7.24
2022-09-23T02:26:09.913Z,7.18
2022-09-23T02:27:18.482Z,7.10
2022-09-23T02:28:34.451Z,7.07
2022-09-23T02:30:27.300Z,7.04
2022-09-23T02:31:59.857Z,7.12
2022-09-23T02:33:07.126Z,7.11
2022-09-23T02:34:25.657Z,7.09
2022-09-23T02:35:40.850Z,7.10
2022-09-23T02:37:10.258Z,7.11
2022-09-23T02:38:21.365Z,7.09
2022-09-23T02:39:31.412Z,6.95
2022-09-23T02:40:59.332Z,7.07
2022-09-23T02:42:12.819Z,7.10
2022-09-23T02:43:50.347Z,7.13
2022-09-23T02:44:52.545Z,7.14
2022-09-23T02:45:56.132Z,7.08
2022-09-23T02:46:58.631Z,7.03
2022-09-23T02:48:21.892Z,7.04
2022-09-23T02:49:27.841Z,6.98
2022-09-23T02:50:31.232Z,6.93
2022-09-23T02:51:37.883Z,6.95
2022-09-23T02:52:40.285Z,7.00
2022-09-23T02:53:43.568Z,6.93
2022-09-23T02:54:45.721Z,6.97
2022-09-23T02:55:48.223Z,7.01
2022-09-23T02:56:50.384Z,7.07
2022-09-23T02:57:53.384Z,7.06
2022-09-23T02:58:55.866Z,7.18
2022-09-23T02:59:58.498Z,7.16
2022-09-23T03:01:44.408Z,7.22
2022-09-23T03:03:15.729Z,7.22
2022-09-23T03:04:23.820Z,7.20
2022-09-23T03:05:32.326Z,7.20
2022-09-23T03:06:54.816Z,7.24
2022-09-23T03:08:42.287Z,7.15
2022-09-23T03:09:52.919Z,7.06
2022-09-23T03:11:08.702Z,7.08
2022-09-23T03:12:25.503Z,7.08
2022-09-23T03:13:46.937Z,6.98
2022-09-23T03:15:05.214Z,7.07
2022-09-23T03:16:27.836Z,7.19
2022-09-23T03:17:39.845Z,7.18
2022-09-23T03:18:54.111Z,7.15
2022-09-23T03:20:07.052Z,7.16
2022-09-23T03:21:18.072Z,7.17
2022-09-23T03:22:36.165Z,7.11
2022-09-23T03:23:40.983Z,7.03
2022-09-23T03:24:45.744Z,7.01
2022-09-23T03:25:50.363Z,7.02
2022-09-23T03:26:54.300Z,7.03
2022-09-23T03:27:59.466Z,7.05
2022-09-23T03:29:09.315Z,7.04
2022-09-23T03:30:13.734Z,7.04
2022-09-23T03:31:17.491Z,6.98
2022-09-23T03:32:23.640Z,6.98
2022-09-23T03:33:29.884Z,6.89
2022-09-23T03:34:36.068Z,6.93
2022-09-23T03:36:03.746Z,6.93
2022-09-23T03:37:51.722Z,6.90
2022-09-23T03:39:05.986Z,6.84
2022-09-23T03:40:29.327Z,6.82
2022-09-23T03:41:37.936Z,6.83
2022-09-23T03:42:41.272Z,6.83
2022-09-23T03:43:45.606Z,6.77
2022-09-23T03:44:49.352Z,6.75
2022-09-23T03:45:57.390Z,6.84
2022-09-23T03:47:02.296Z,6.81
2022-09-23T03:48:04.638Z,6.80
2022-09-23T03:49:39.598Z,6.77
2022-09-23T03:50:41.804Z,6.69
2022-09-23T03:51:44.887Z,6.70
2022-09-23T03:52:49.139Z,6.71
2022-09-23T03:53:51.301Z,6.85
2022-09-23T03:54:53.617Z,7.01
2022-09-23T03:55:55.747Z,7.17
2022-09-23T03:56:58.637Z,7.28
2022-09-23T03:58:02.418Z,7.30
2022-09-23T03:59:04.575Z,7.06
2022-09-23T04:00:07.570Z,6.78
2022-09-23T04:01:15.981Z,6.60
2022-09-23T04:02:20.262Z,6.56
2022-09-23T04:03:22.748Z,6.47
2022-09-23T04:04:28.710Z,6.49
2022-09-23T04:05:31.053Z,6.66
2022-09-23T04:06:33.207Z,6.82
2022-09-23T04:07:35.399Z,6.93
2022-09-23T04:08:37.896Z,6.93
2022-09-23T04:09:40.371Z,6.94
2022-09-23T04:10:42.528Z,7.01
2022-09-23T04:11:44.704Z,7.03
2022-09-23T04:12:46.911Z,6.76
2022-09-23T04:13:49.099Z,6.55
2022-09-23T04:14:51.237Z,6.60
2022-09-23T04:15:53.530Z,6.68
2022-09-23T04:16:56.112Z,6.80
2022-09-23T04:17:58.276Z,6.87
2022-09-23T04:19:00.557Z,6.69
2022-09-23T04:20:03.390Z,6.48
2022-09-23T04:21:05.799Z,6.56
2022-09-23T04:22:09.028Z,6.33
2022-09-23T04:23:11.223Z,6.25
2022-09-23T04:24:16.064Z,6.03
2022-09-23T04:25:18.273Z,6.01
2022-09-23T04:26:20.561Z,6.22
2022-09-23T04:27:22.888Z,6.35
2022-09-23T04:28:25.095Z,6.42
2022-09-23T04:29:27.365Z,6.24
2022-09-23T04:30:29.709Z,6.12
2022-09-23T04:31:33.210Z,6.13
2022-09-23T04:32:35.624Z,6.23
2022-09-23T04:33:37.997Z,6.16
2022-09-23T04:34:40.209Z,6.06
2022-09-23T04:35:45.413Z,6.02
2022-09-23T04:36:48.980Z,5.99
2022-09-23T04:37:51.364Z,5.99
2022-09-23T04:38:53.551Z,6.00
2022-09-23T04:39:56.213Z,5.99
2022-09-23T04:40:58.878Z,6.07
2022-09-23T04:42:01.336Z,6.00
2022-09-23T04:43:03.896Z,6.08
2022-09-23T04:44:06.160Z,5.95
2022-09-23T04:45:08.802Z,5.98
2022-09-23T04:46:13.311Z,6.00
2022-09-23T04:47:16.019Z,5.96
2022-09-23T04:48:18.331Z,5.95
2022-09-23T04:49:20.634Z,5.90
2022-09-23T04:50:22.904Z,5.91
2022-09-23T04:51:26.942Z,5.96
2022-09-23T04:52:31.303Z,5.91
2022-09-23T04:53:35.797Z,5.96
2022-09-23T04:54:37.967Z,6.02
2022-09-23T04:55:42.030Z,5.98
2022-09-23T04:56:44.264Z,6.05
2022-09-23T04:57:46.812Z,6.09
2022-09-23T04:58:49.968Z,6.09
2022-09-23T04:59:53.071Z,6.11
2022-09-23T05:00:55.941Z,6.11
2022-09-23T05:01:58.172Z,6.16
2022-09-23T05:03:00.725Z,6.13
2022-09-23T05:04:06.181Z,6.17
2022-09-23T05:05:08.542Z,6.04
2022-09-23T05:06:15.220Z,6.08
2022-09-23T05:07:18.397Z,6.02
2022-09-23T05:08:22.520Z,5.97
2022-09-23T05:09:24.676Z,6.03
2022-09-23T05:10:26.840Z,6.02
2022-09-23T05:11:30.629Z,6.08
2022-09-23T05:12:32.965Z,6.09
2022-09-23T05:13:35.609Z,6.02
2022-09-23T05:14:39.026Z,5.96
2022-09-23T05:15:41.212Z,6.02
2022-09-23T05:16:43.530Z,6.08
2022-09-23T05:17:45.908Z,6.14
2022-09-23T05:18:49.044Z,6.13
2022-09-23T05:19:51.412Z,6.12
2022-09-23T05:20:55.386Z,6.16
2022-09-23T05:21:57.545Z,6.20
2022-09-23T05:23:00.308Z,6.22
2022-09-23T05:24:02.921Z,6.21
2022-09-23T05:25:05.478Z,6.18
2022-09-23T05:26:10.719Z,6.23
2022-09-23T05:27:12.966Z,6.24
2022-09-23T05:28:20.075Z,6.30
2022-09-23T05:29:22.240Z,6.32
2022-09-23T05:30:24.712Z,6.32
2022-09-23T05:31:29.273Z,6.32
2022-09-23T05:32:31.877Z,6.34
2022-09-23T05:33:35.552Z,6.36
2022-09-23T05:34:37.787Z,6.44
2022-09-23T05:35:40.137Z,6.44
2022-09-23T05:36:42.306Z,6.41
2022-09-23T05:37:44.569Z,6.44
2022-09-23T05:38:47.606Z,6.43
2022-09-23T05:39:49.736Z,6.46
2022-09-23T05:41:13.790Z,6.56
2022-09-23T05:42:16.330Z,6.54
2022-09-23T05:43:18.518Z,6.52
2022-09-23T05:44:20.646Z,6.55
2022-09-23T05:45:26.828Z,6.56
2022-09-23T05:46:30.857Z,6.59
2022-09-23T05:47:33.194Z,6.64
2022-09-23T05:48:36.410Z,6.72
2022-09-23T05:49:58.733Z,6.72
2022-09-23T05:51:01.631Z,6.75
2022-09-23T05:52:03.760Z,6.78
2022-09-23T05:53:06.233Z,6.74
2022-09-23T05:54:08.497Z,6.77
2022-09-23T05:55:11.748Z,6.75
2022-09-23T05:56:16.163Z,6.81
2022-09-23T05:57:18.990Z,6.86
2022-09-23T05:58:21.805Z,6.94
2022-09-23T05:59:23.963Z,6.98
2022-09-23T06:00:26.228Z,7.08
2022-09-23T06:01:32.543Z,7.06
2022-09-23T06:02:34.776Z,7.12
2022-09-23T06:03:37.684Z,7.17
2022-09-23T06:04:39.873Z,7.24
2022-09-23T06:05:42.518Z,7.21
2022-09-23T06:06:44.691Z,7.10
2022-09-23T06:07:46.911Z,7.10
2022-09-23T06:08:49.209Z,7.04
2022-09-23T06:09:53.960Z,7.02
2022-09-23T06:10:56.315Z,7.18
2022-09-23T06:11:58.496Z,7.15
2022-09-23T06:13:00.730Z,7.27
2022-09-23T06:14:04.127Z,7.28
2022-09-23T06:15:07.181Z,7.29
2022-09-23T06:16:14.707Z,7.36
2022-09-23T06:17:17.038Z,7.43
2022-09-23T06:18:19.216Z,7.45
2022-09-23T06:19:21.586Z,7.44
2022-09-23T06:20:23.787Z,7.54
2022-09-23T06:21:26.272Z,7.61
2022-09-23T06:22:28.443Z,7.69
2022-09-23T06:23:31.294Z,7.74
2022-09-23T06:24:33.606Z,7.78
2022-09-23T06:25:38.391Z,7.80
2022-09-23T06:26:40.632Z,7.73
2022-09-23T06:27:42.795Z,7.77
2022-09-23T06:28:46.083Z,7.80
2022-09-23T06:29:49.460Z,7.80
2022-09-23T06:30:58.227Z,7.86
2022-09-23T06:32:00.751Z,7.96
2022-09-23T06:33:03.021Z,8.01
2022-09-23T06:34:11.463Z,8.04
2022-09-23T06:35:25.728Z,7.98
2022-09-23T06:36:40.490Z,8.05
2022-09-23T06:37:43.923Z,8.00
2022-09-23T06:38:49.209Z,7.97
2022-09-23T06:39:52.622Z,8.10
2022-09-23T06:40:58.204Z,8.26
2022-09-23T06:42:00.541Z,8.32
2022-09-23T06:43:02.807Z,8.36
2022-09-23T06:44:05.759Z,8.49
2022-09-23T06:45:11.794Z,8.51
2022-09-23T06:46:16.256Z,8.67
2022-09-23T06:47:18.597Z,8.75
2022-09-23T06:48:21.146Z,8.82
2022-09-23T06:49:23.344Z,8.91
2022-09-23T06:50:27.194Z,8.98
2022-09-23T06:51:29.630Z,8.97
2022-09-23T06:52:32.128Z,9.15
2022-09-23T06:53:34.461Z,9.21
2022-09-23T06:54:38.059Z,9.32
2022-09-23T06:55:41.300Z,9.38
2022-09-23T06:56:47.456Z,9.45
2022-09-23T06:57:49.848Z,9.66
2022-09-23T06:58:53.081Z,10.10
2022-09-23T06:59:55.256Z,10.50
2022-09-23T07:01:02.448Z,10.84
2022-09-23T07:02:04.787Z,11.33
2022-09-23T07:03:08.604Z,11.87
2022-09-23T07:04:11.188Z,12.30
2022-09-23T07:05:13.620Z,12.53
2022-09-23T07:06:17.120Z,12.77
2022-09-23T07:07:19.661Z,13.04
2022-09-23T07:08:23.709Z,13.32
2022-09-23T07:09:25.976Z,13.47
2022-09-23T07:10:29.196Z,13.68
2022-09-23T07:11:31.517Z,13.95
2022-09-23T07:12:34.189Z,14.05
2022-09-23T07:13:37.231Z,14.49
2022-09-23T07:14:39.918Z,14.67
2022-09-23T07:15:42.365Z,14.69
2022-09-23T07:16:44.542Z,14.81
2022-09-23T07:17:46.684Z,15.05
2022-09-23T07:18:48.885Z,15.32
2022-09-23T07:19:51.680Z,15.35
2022-09-23T07:20:54.629Z,15.67
2022-09-23T07:21:57.065Z,16.14
2022-09-23T07:22:59.365Z,16.10
2022-09-23T07:24:01.819Z,16.10
2022-09-23T07:25:06.031Z,15.98
2022-09-23T07:26:08.793Z,15.92
2022-09-23T07:27:11.209Z,15.79
2022-09-23T07:28:13.835Z,15.89
2022-09-23T07:29:15.977Z,16.22
2022-09-23T07:30:24.500Z,16.32
2022-09-23T07:31:38.659Z,16.56
2022-09-23T07:32:48.307Z,16.78
2022-09-23T07:33:56.685Z,16.98
2022-09-23T07:34:59.183Z,17.08
2022-09-23T07:36:09.494Z,17.05
2022-09-23T07:37:11.716Z,16.77
2022-09-23T07:38:13.888Z,16.32
2022-09-23T07:39:16.126Z,16.05
2022-09-23T07:40:18.321Z,16.28
2022-09-23T07:41:20.526Z,16.48
2022-09-23T07:42:22.687Z,16.66
2022-09-23T07:43:30.007Z,16.58
2022-09-23T07:44:33.121Z,16.76
2022-09-23T07:45:38.914Z,16.83
2022-09-23T07:46:41.289Z,16.89
2022-09-23T07:47:43.744Z,17.09
2022-09-23T07:48:46.901Z,17.24
2022-09-23T07:49:49.218Z,17.06
2022-09-23T07:50:51.528Z,17.16
2022-09-23T07:51:54.268Z,17.48
2022-09-23T07:52:56.608Z,17.65
2022-09-23T07:53:59.531Z,17.84
2022-09-23T07:55:01.717Z,17.98
2022-09-23T07:56:06.606Z,17.85
2022-09-23T07:57:08.837Z,18.05
2022-09-23T07:58:11.292Z,18.10
2022-09-23T07:59:18.468Z,18.29
2022-09-23T08:00:21.199Z,18.48
2022-09-23T08:01:23.356Z,18.68
2022-09-23T08:02:25.718Z,18.25
2022-09-23T08:03:28.474Z,18.52
2022-09-23T08:04:31.805Z,18.45
2022-09-23T08:05:34.268Z,18.65
2022-09-23T08:06:40.939Z,18.78
2022-09-23T08:07:43.105Z,18.88
2022-09-23T08:08:47.963Z,18.56
2022-09-23T08:09:52.176Z,18.70
2022-09-23T08:11:02.169Z,18.76
2022-09-23T08:12:04.920Z,18.92
2022-09-23T08:13:07.310Z,18.92
2022-09-23T08:14:11.437Z,18.86
2022-09-23T08:15:13.620Z,18.56
2022-09-23T08:16:16.171Z,18.57
2022-09-23T08:17:18.644Z,18.64
2022-09-23T08:18:20.815Z,18.69
2022-09-23T08:19:23.142Z,18.74
2022-09-23T08:20:47.068Z,18.66
2022-09-23T08:21:52.126Z,18.43
2022-09-23T08:22:54.850Z,18.44
2022-09-23T08:23:57.448Z,18.06
2022-09-23T08:24:59.578Z,18.48
2022-09-23T08:26:04.485Z,18.66
2022-09-23T08:27:06.642Z,18.67
2022-09-23T08:28:09.414Z,18.99
2022-09-23T08:29:18.239Z,19.39
2022-09-23T08:30:20.395Z,19.29
2022-09-23T08:31:23.158Z,19.18
2022-09-23T08:32:25.376Z,18.93
2022-09-23T08:33:27.672Z,18.42
2022-09-23T08:34:29.862Z,18.67
2022-09-23T08:35:32.040Z,18.31
2022-09-23T08:36:35.148Z,18.52
2022-09-23T08:37:37.367Z,18.68
2022-09-23T08:38:40.906Z,18.62
2022-09-23T08:39:45.804Z,18.65
2022-09-23T08:40:50.832Z,19.01
2022-09-23T08:41:57.527Z,18.80
2022-09-23T08:43:01.279Z,18.65
2022-09-23T08:44:16.936Z,18.31
2022-09-23T08:45:26.686Z,18.28
2022-09-23T08:46:36.088Z,18.45
2022-09-23T08:48:01.931Z,18.46
2022-09-23T08:49:06.604Z,18.62
2022-09-23T08:50:14.813Z,18.95
2022-09-23T08:51:29.546Z,19.26
2022-09-23T08:52:57.035Z,19.37
2022-09-23T08:54:00.004Z,19.54
2022-09-23T08:55:03.133Z,19.27
2022-09-23T08:56:20.117Z,19.20
2022-09-23T08:57:28.315Z,19.22
2022-09-23T08:58:43.888Z,19.18
2022-09-23T08:59:46.255Z,19.33
2022-09-23T09:01:46.765Z,18.80
2022-09-23T09:02:50.185Z,19.03
2022-09-23T09:03:56.170Z,19.13
2022-09-23T09:05:05.791Z,18.60
2022-09-23T09:06:17.297Z,17.94
2022-09-23T09:07:37.916Z,18.18
2022-09-23T09:08:41.383Z,18.44
2022-09-23T09:09:53.739Z,18.62
2022-09-23T09:10:58.444Z,18.86
2022-09-23T09:12:43.112Z,19.07
2022-09-23T09:13:57.480Z,19.20
2022-09-23T09:15:02.736Z,19.06
2022-09-23T09:16:58.964Z,19.02
2022-09-23T09:18:11.293Z,19.24
2022-09-23T09:19:35.463Z,19.11
2022-09-23T09:20:51.592Z,18.46
2022-09-23T09:21:54.943Z,18.29
2022-09-23T09:23:04.852Z,18.39
2022-09-23T09:24:17.633Z,18.81
2022-09-23T09:25:24.248Z,18.66
2022-09-23T09:26:29.449Z,18.73
2022-09-23T09:27:31.610Z,18.31
2022-09-23T09:29:06.518Z,18.03
2022-09-23T09:30:19.782Z,17.88
2022-09-23T09:31:28.248Z,17.62
2022-09-23T09:32:50.809Z,17.98
2022-09-23T09:34:08.777Z,18.25
2022-09-23T09:35:24.799Z,18.43
2022-09-23T09:36:46.955Z,18.63
2022-09-23T09:37:49.352Z,18.53
2022-09-23T09:38:53.468Z,18.48
2022-09-23T09:40:00.926Z,18.63
2022-09-23T09:41:19.726Z,18.59
2022-09-23T09:42:30.784Z,18.35
2022-09-23T09:43:35.668Z,18.58
2022-09-23T09:44:42.597Z,18.62
2022-09-23T09:46:15.270Z,18.57
2022-09-23T09:47:28.443Z,18.45
2022-09-23T09:48:39.701Z,18.64
2022-09-23T09:49:51.775Z,18.76
2022-09-23T09:50:55.979Z,18.89
2022-09-23T09:52:19.741Z,18.90
2022-09-23T09:53:27.515Z,18.84
2022-09-23T09:54:31.124Z,18.66
2022-09-23T09:55:33.393Z,18.64
2022-09-23T09:56:36.310Z,18.60
2022-09-23T09:57:48.569Z,18.67
2022-09-23T09:58:57.841Z,18.82
2022-09-23T10:00:18.994Z,18.83
2022-09-23T10:01:22.948Z,18.92
2022-09-23T10:02:29.690Z,19.00
2022-09-23T10:03:41.431Z,18.99
2022-09-23T10:04:46.905Z,18.97
2022-09-23T10:05:56.724Z,18.87
2022-09-23T10:07:16.069Z,18.90
2022-09-23T10:08:34.922Z,18.95
2022-09-23T10:09:38.943Z,19.01
2022-09-23T10:11:00.006Z,19.04
2022-09-23T10:12:19.143Z,19.07
2022-09-23T10:13:24.284Z,18.97
2022-09-23T10:14:26.786Z,18.97
2022-09-23T10:15:44.491Z,19.05
2022-09-23T10:17:05.480Z,19.03
2022-09-23T10:18:20.117Z,19.00
2022-09-23T10:19:30.141Z,18.94
2022-09-23T10:20:38.977Z,18.88
2022-09-23T10:21:42.341Z,18.93
2022-09-23T10:22:46.486Z,18.95
2022-09-23T10:23:55.185Z,18.93
2022-09-23T10:25:04.647Z,18.87
2022-09-23T10:26:12.172Z,18.96
2022-09-23T10:27:14.345Z,18.99
2022-09-23T10:28:38.294Z,19.02
2022-09-23T10:29:46.682Z,18.85
2022-09-23T10:31:14.986Z,18.67
2022-09-23T10:32:33.667Z,18.74
2022-09-23T10:33:41.995Z,18.65
2022-09-23T10:34:48.792Z,18.66
2022-09-23T10:35:57.222Z,18.71
2022-09-23T10:37:12.100Z,18.70
2022-09-23T10:38:14.643Z,18.42
2022-09-23T10:39:35.513Z,18.27
2022-09-23T10:40:59.555Z,18.11
2022-09-23T10:42:36.077Z,18.02
2022-09-23T10:44:19.837Z,18.02
2022-09-23T10:45:49.710Z,17.88
2022-09-23T10:47:26.977Z,17.91
2022-09-23T10:48:52.815Z,17.97
2022-09-23T10:50:11.877Z,18.15
2022-09-23T10:51:29.567Z,18.24
2022-09-23T10:52:40.869Z,18.23
2022-09-23T10:53:57.392Z,18.19
2022-09-23T10:55:18.064Z,18.12
2022-09-23T10:56:32.302Z,18.06
2022-09-23T10:58:00.063Z,18.15
2022-09-23T10:59:44.114Z,18.19
2022-09-23T11:01:02.066Z,18.10
2022-09-23T11:02:40.473Z,18.27
2022-09-23T11:04:01.546Z,18.44
2022-09-23T11:05:36.578Z,18.48
2022-09-23T11:07:14.337Z,18.52
2022-09-23T11:08:52.124Z,18.40
2022-09-23T11:09:54.233Z,18.48
2022-09-23T11:11:15.595Z,18.44
2022-09-23T11:12:44.597Z,18.24
2022-09-23T11:14:04.757Z,17.99
2022-09-23T11:15:23.194Z,18.02
2022-09-23T11:16:40.863Z,17.96
2022-09-23T11:18:22.953Z,17.91
2022-09-23T11:19:38.676Z,17.68
2022-09-23T11:20:58.174Z,17.65
2022-09-23T11:22:24.589Z,17.60
2022-09-23T11:23:45.575Z,17.34
2022-09-23T11:25:28.592Z,17.34
2022-09-23T11:26:53.606Z,17.40
2022-09-23T11:28:29.435Z,17.55
2022-09-23T11:29:57.028Z,17.75
2022-09-23T11:31:21.433Z,17.85
2022-09-23T11:32:27.599Z,18.08
2022-09-23T11:33:57.870Z,18.08
2022-09-23T11:35:15.123Z,18.22
2022-09-23T11:36:38.068Z,18.33
2022-09-23T11:37:47.945Z,18.35
2022-09-23T11:38:55.970Z,18.46
2022-09-23T11:40:13.767Z,18.56
2022-09-23T11:41:32.898Z,18.67
2022-09-23T11:43:07.365Z,18.72
2022-09-23T11:44:23.532Z,18.77
2022-09-23T11:45:31.377Z,18.78
2022-09-23T11:46:40.344Z,18.82
2022-09-23T11:47:56.027Z,18.79
2022-09-23T11:49:27.813Z,18.62
2022-09-23T11:50:36.621Z,18.63
2022-09-23T11:52:03.969Z,18.62
2022-09-23T11:53:20.346Z,18.65
2022-09-23T11:54:42.552Z,18.68
2022-09-23T11:55:57.716Z,18.69
2022-09-23T11:57:06.534Z,18.75
2022-09-23T11:58:26.699Z,18.92
2022-09-23T12:01:01.650Z,18.89
2022-09-23T12:02:20.826Z,19.02
2022-09-23T12:03:52.093Z,19.09
2022-09-23T12:05:03.211Z,19.08
2022-09-23T12:06:40.842Z,18.83
2022-09-23T12:08:05.479Z,18.79
2022-09-23T12:09:58.388Z,18.88
2022-09-23T12:11:30.726Z,18.98
2022-09-23T12:12:35.539Z,19.02
2022-09-23T12:13:37.900Z,18.62
2022-09-23T12:15:22.048Z,18.60
2022-09-23T12:16:53.778Z,18.75
2022-09-23T12:18:20.948Z,19.02
2022-09-23T12:19:54.838Z,19.08
2022-09-23T12:21:05.658Z,19.20
2022-09-23T12:22:19.718Z,19.29
2022-09-23T12:23:37.130Z,19.35
2022-09-23T12:24:48.581Z,19.45
2022-09-23T12:25:57.825Z,19.43
2022-09-23T12:27:06.088Z,19.39
2022-09-23T12:28:18.471Z,19.32
2022-09-23T12:29:20.914Z,19.37
2022-09-23T12:30:30.336Z,19.44
2022-09-23T12:31:41.127Z,19.44
2022-09-23T12:32:48.151Z,19.39
2022-09-23T12:33:55.171Z,19.34
2022-09-23T12:34:58.797Z,19.37
2022-09-23T12:36:07.072Z,19.39
2022-09-23T12:37:09.458Z,19.40
2022-09-23T12:38:17.996Z,19.32
2022-09-23T12:39:32.822Z,19.35
2022-09-23T12:40:44.754Z,19.38
2022-09-23T12:41:58.359Z,19.30
2022-09-23T12:43:02.374Z,19.27
2022-09-23T12:44:11.086Z,19.33
2022-09-23T12:45:39.411Z,19.26
2022-09-23T12:46:45.927Z,19.35
2022-09-23T12:47:48.155Z,19.29
2022-09-23T12:48:57.886Z,19.20
2022-09-23T12:50:01.245Z,19.24
2022-09-23T12:51:03.724Z,19.35
2022-09-23T12:52:11.591Z,19.38
2022-09-23T12:53:38.849Z,19.35
2022-09-23T12:54:45.937Z,19.26
2022-09-23T12:55:51.580Z,19.27
2022-09-23T12:56:53.888Z,19.31
2022-09-23T12:57:56.010Z,19.30
2022-09-23T12:59:02.379Z,19.28
2022-09-23T13:00:11.201Z,19.31
2022-09-23T13:01:24.854Z,19.56
2022-09-23T13:02:42.603Z,19.66
2022-09-23T13:04:06.219Z,19.59
2022-09-23T13:05:26.713Z,19.47
2022-09-23T13:06:39.908Z,19.59
2022-09-23T13:07:47.862Z,19.52
2022-09-23T13:08:50.077Z,19.39
2022-09-23T13:09:57.220Z,19.33
2022-09-23T13:11:05.353Z,19.26
2022-09-23T13:12:18.348Z,19.26
2022-09-23T13:13:42.797Z,19.15
2022-09-23T13:14:48.449Z,19.22
2022-09-23T13:15:53.609Z,19.26
2022-09-23T13:16:58.423Z,19.44
2022-09-23T13:18:19.430Z,19.55
2022-09-23T13:19:35.373Z,19.49
2022-09-23T13:20:40.719Z,19.38
2022-09-23T13:21:43.834Z,19.55
2022-09-23T13:22:48.635Z,19.60
2022-09-23T13:24:12.855Z,19.74
2022-09-23T13:25:40.822Z,19.69
2022-09-23T13:26:48.895Z,19.73
2022-09-23T13:27:54.522Z,19.89
2022-09-23T13:28:59.266Z,19.86
2022-09-23T13:30:16.664Z,19.83
2022-09-23T13:31:20.243Z,19.83
2022-09-23T13:32:30.742Z,19.89
2022-09-23T13:33:42.899Z,19.99
2022-09-23T13:35:01.653Z,19.95
2022-09-23T13:36:12.099Z,19.82
2022-09-23T13:37:23.251Z,19.80
2022-09-23T13:38:29.610Z,19.77
2022-09-23T13:39:31.755Z,19.75
2022-09-23T13:40:35.336Z,19.69
2022-09-23T13:41:37.527Z,19.72
2022-09-23T13:42:40.702Z,19.77
2022-09-23T13:43:48.801Z,19.67
2022-09-23T13:44:55.560Z,19.64
2022-09-23T13:45:58.812Z,19.55
2022-09-23T13:47:03.315Z,19.50
2022-09-23T13:48:10.568Z,19.38
2022-09-23T13:49:29.661Z,19.45
2022-09-23T13:50:35.287Z,19.42
2022-09-23T13:51:37.825Z,19.18
2022-09-23T13:52:39.992Z,19.01
2022-09-23T13:53:42.133Z,19.01
2022-09-23T13:54:50.646Z,18.86
2022-09-23T13:56:01.599Z,18.83
2022-09-23T13:57:04.707Z,18.84
2022-09-23T13:58:24.355Z,18.86
2022-09-23T13:59:36.301Z,18.79
2022-09-23T14:00:39.118Z,18.70
2022-09-23T14:01:41.392Z,18.68
2022-09-23T14:02:44.289Z,18.74
2022-09-23T14:03:46.647Z,18.82
2022-09-23T14:04:49.399Z,18.82
2022-09-23T14:05:56.590Z,18.81
2022-09-23T14:06:58.784Z,18.78
2022-09-23T14:08:02.489Z,18.49
2022-09-23T14:09:06.444Z,18.39
2022-09-23T14:10:19.235Z,18.46
2022-09-23T14:11:33.328Z,18.40
2022-09-23T14:12:39.593Z,18.51
2022-09-23T14:13:43.975Z,18.67
2022-09-23T14:14:46.627Z,18.85
2022-09-23T14:15:49.368Z,18.92
2022-09-23T14:16:52.736Z,18.97
2022-09-23T14:18:03.167Z,19.03
2022-09-23T14:19:06.513Z,19.08
2022-09-23T14:20:20.842Z,19.09
2022-09-23T14:21:28.374Z,19.01
2022-09-23T14:22:31.056Z,19.04
2022-09-23T14:23:33.716Z,19.10
2022-09-23T14:24:37.009Z,19.03
2022-09-23T14:25:40.832Z,19.00
2022-09-23T14:26:46.791Z,18.88
2022-09-23T14:27:48.972Z,18.82
2022-09-23T14:28:52.235Z,18.86
2022-09-23T14:29:55.417Z,18.89
2022-09-23T14:30:58.726Z,19.06
2022-09-23T14:32:26.856Z,19.07
2022-09-23T14:33:34.041Z,18.93
2022-09-23T14:34:45.024Z,18.97
2022-09-23T14:35:52.050Z,18.96
2022-09-23T14:37:12.682Z,18.78
2022-09-23T14:38:49.334Z,18.77
2022-09-23T14:39:55.750Z,18.95
2022-09-23T14:41:17.425Z,18.97
2022-09-23T14:42:20.560Z,18.93
2022-09-23T14:43:29.127Z,18.83
2022-09-23T14:44:33.273Z,18.86
2022-09-23T14:45:38.608Z,18.99
2022-09-23T14:46:50.852Z,19.00
2022-09-23T14:47:59.016Z,18.85
2022-09-23T14:49:06.255Z,18.79
2022-09-23T14:50:34.641Z,18.68
2022-09-23T14:51:45.760Z,18.66
2022-09-23T14:52:51.869Z,18.62
2022-09-23T14:53:54.106Z,18.57
2022-09-23T14:54:57.156Z,18.63
2022-09-23T14:56:08.153Z,18.62
2022-09-23T14:57:22.623Z,18.70
2022-09-23T14:58:30.827Z,18.73
2022-09-23T14:59:37.063Z,18.68
2022-09-23T15:00:39.464Z,18.72
2022-09-23T15:01:41.769Z,18.50
2022-09-23T15:02:57.044Z,18.23
2022-09-23T15:04:24.026Z,18.14
2022-09-23T15:05:45.543Z,18.19
2022-09-23T15:06:59.343Z,18.35
2022-09-23T15:08:02.917Z,18.37
2022-09-23T15:09:07.257Z,18.37
2022-09-23T15:10:19.892Z,18.31
2022-09-23T15:11:22.723Z,18.33
2022-09-23T15:12:25.253Z,18.30
2022-09-23T15:13:30.044Z,18.27
2022-09-23T15:14:41.039Z,18.35
2022-09-23T15:15:44.172Z,18.24
2022-09-23T15:16:46.630Z,18.23
2022-09-23T15:17:48.887Z,18.33